sensor_id;sensor_type;location;lat;lon;timestamp;pressure;altitude;pressure_sealevel;temperature
37414;BMP280;23279;46.472;30.760;2023-07-29T00:00:42;77445.88;;;-146.33
37414;BMP280;23279;46.472;30.760;2023-07-29T00:03:08;77460.13;;;-146.33
37414;BMP280;23279;46.472;30.760;2023-07-29T00:05:33;77454.03;;;-146.33
37414;BMP280;23279;46.472;30.760;2023-07-29T00:07:59;77454.03;;;-146.33
37414;BMP280;23279;46.472;30.760;2023-07-29T00:13:14;77443.84;;;-146.33
37414;BMP280;23279;46.472;30.760;2023-07-29T00:15:40;77441.81;;;-146.33
37414;BMP280;23279;46.472;30.760;2023-07-29T00:18:07;77441.81;;;-146.33
37414;BMP280;23279;46.472;30.760;2023-07-29T00:20:38;77439.78;;;-146.33
37414;BMP280;23279;46.472;30.760;2023-07-29T00:23:10;77439.78;;;-146.33
37414;BMP280;23279;46.472;30.760;2023-07-29T00:25:38;77437.75;;;-146.33
37414;BMP280;23279;46.472;30.760;2023-07-29T00:28:06;77433.69;;;-146.33
37414;BMP280;23279;46.472;30.760;2023-07-29T00:30:33;77431.63;;;-146.33
37414;BMP280;23279;46.472;30.760;2023-07-29T00:32:59;77433.69;;;-146.33
37414;BMP280;23279;46.472;30.760;2023-07-29T00:35:27;77441.81;;;-146.33
37414;BMP280;23279;46.472;30.760;2023-07-29T00:37:53;77427.56;;;-146.33
37414;BMP280;23279;46.472;30.760;2023-07-29T00:40:22;77433.69;;;-146.33
37414;BMP280;23279;46.472;30.760;2023-07-29T00:43:00;77433.69;;;-146.33
37414;BMP280;23279;46.472;30.760;2023-07-29T00:45:26;77437.75;;;-146.33
37414;BMP280;23279;46.472;30.760;2023-07-29T00:47:56;77433.69;;;-146.33
37414;BMP280;23279;46.472;30.760;2023-07-29T00:50:25;77445.88;;;-146.33
37414;BMP280;23279;46.472;30.760;2023-07-29T00:52:54;77458.09;;;-146.33
37414;BMP280;23279;46.472;30.760;2023-07-29T00:55:28;77462.16;;;-146.33
37414;BMP280;23279;46.472;30.760;2023-07-29T00:58:08;77462.16;;;-146.33
37414;BMP280;23279;46.472;30.760;2023-07-29T01:00:33;77470.28;;;-146.33
37414;BMP280;23279;46.472;30.760;2023-07-29T01:03:10;77464.19;;;-146.33
37414;BMP280;23279;46.472;30.760;2023-07-29T01:05:44;77464.19;;;-146.33
37414;BMP280;23279;46.472;30.760;2023-07-29T01:08:31;77464.19;;;-146.33
37414;BMP280;23279;46.472;30.760;2023-07-29T01:11:07;77466.22;;;-146.33
37414;BMP280;23279;46.472;30.760;2023-07-29T01:13:44;77460.13;;;-146.33
37414;BMP280;23279;46.472;30.760;2023-07-29T01:16:17;77462.16;;;-146.33
37414;BMP280;23279;46.472;30.760;2023-07-29T01:18:47;77454.03;;;-146.33
37414;BMP280;23279;46.472;30.760;2023-07-29T01:21:14;77447.91;;;-146.33
37414;BMP280;23279;46.472;30.760;2023-07-29T01:23:58;77441.81;;;-146.33
37414;BMP280;23279;46.472;30.760;2023-07-29T01:26:24;77439.78;;;-146.33
37414;BMP280;23279;46.472;30.760;2023-07-29T01:28:50;77429.59;;;-146.33
37414;BMP280;23279;46.472;30.760;2023-07-29T01:31:39;77431.63;;;-146.33
37414;BMP280;23279;46.472;30.760;2023-07-29T01:34:29;77429.59;;;-146.33
37414;BMP280;23279;46.472;30.760;2023-07-29T01:37:04;77433.69;;;-146.33
37414;BMP280;23279;46.472;30.760;2023-07-29T01:39:50;77429.59;;;-146.33
37414;BMP280;23279;46.472;30.760;2023-07-29T01:42:16;77421.47;;;-146.33
37414;BMP280;23279;46.472;30.760;2023-07-29T01:44:42;77417.41;;;-146.33
37414;BMP280;23279;46.472;30.760;2023-07-29T01:47:08;77417.41;;;-146.33
37414;BMP280;23279;46.472;30.760;2023-07-29T01:49:42;77411.28;;;-146.33
37414;BMP280;23279;46.472;30.760;2023-07-29T01:52:12;77413.31;;;-146.33
37414;BMP280;23279;46.472;30.760;2023-07-29T01:54:37;77409.25;;;-146.33
37414;BMP280;23279;46.472;30.760;2023-07-29T01:57:03;77411.28;;;-146.33
37414;BMP280;23279;46.472;30.760;2023-07-29T01:59:29;77409.25;;;-146.33
37414;BMP280;23279;46.472;30.760;2023-07-29T02:01:56;77399.09;;;-146.33
37414;BMP280;23279;46.472;30.760;2023-07-29T02:04:22;77405.19;;;-146.33
37414;BMP280;23279;46.472;30.760;2023-07-29T02:06:47;77413.31;;;-146.33
37414;BMP280;23279;46.472;30.760;2023-07-29T02:09:13;77413.31;;;-146.33
37414;BMP280;23279;46.472;30.760;2023-07-29T02:11:40;77411.28;;;-146.33
37414;BMP280;23279;46.472;30.760;2023-07-29T02:14:09;77409.25;;;-146.33
37414;BMP280;23279;46.472;30.760;2023-07-29T02:16:35;77405.19;;;-146.33
37414;BMP280;23279;46.472;30.760;2023-07-29T02:19:21;77399.09;;;-146.33
37414;BMP280;23279;46.472;30.760;2023-07-29T02:21:47;77397.06;;;-146.33
37414;BMP280;23279;46.472;30.760;2023-07-29T02:24:13;77401.13;;;-146.33
37414;BMP280;23279;46.472;30.760;2023-07-29T02:26:39;77399.09;;;-146.33
37414;BMP280;23279;46.472;30.760;2023-07-29T02:29:05;77399.09;;;-146.33
37414;BMP280;23279;46.472;30.760;2023-07-29T02:31:31;77409.25;;;-146.33
37414;BMP280;23279;46.472;30.760;2023-07-29T02:33:56;77401.13;;;-146.33
37414;BMP280;23279;46.472;30.760;2023-07-29T02:36:22;77405.19;;;-146.33
37414;BMP280;23279;46.472;30.760;2023-07-29T02:38:50;77401.13;;;-146.33
37414;BMP280;23279;46.472;30.760;2023-07-29T02:41:16;77397.06;;;-146.33
37414;BMP280;23279;46.472;30.760;2023-07-29T02:43:48;77395.03;;;-146.33
37414;BMP280;23279;46.472;30.760;2023-07-29T02:46:20;77392.97;;;-146.33
37414;BMP280;23279;46.472;30.760;2023-07-29T02:48:45;77388.91;;;-146.33
37414;BMP280;23279;46.472;30.760;2023-07-29T02:51:12;77397.06;;;-146.33
37414;BMP280;23279;46.472;30.760;2023-07-29T02:53:41;77382.81;;;-146.33
37414;BMP280;23279;46.472;30.760;2023-07-29T02:56:08;77388.91;;;-146.33
37414;BMP280;23279;46.472;30.760;2023-07-29T02:58:36;77380.78;;;-146.33
37414;BMP280;23279;46.472;30.760;2023-07-29T03:01:04;77388.91;;;-146.33
37414;BMP280;23279;46.472;30.760;2023-07-29T03:03:36;77384.84;;;-146.33
37414;BMP280;23279;46.472;30.760;2023-07-29T03:06:04;77386.88;;;-146.33
37414;BMP280;23279;46.472;30.760;2023-07-29T03:08:30;77386.88;;;-146.33
37414;BMP280;23279;46.472;30.760;2023-07-29T03:11:13;77388.91;;;-146.33
37414;BMP280;23279;46.472;30.760;2023-07-29T03:13:46;77380.78;;;-146.33
37414;BMP280;23279;46.472;30.760;2023-07-29T03:16:14;77382.81;;;-146.33
37414;BMP280;23279;46.472;30.760;2023-07-29T03:18:41;77368.56;;;-146.33
37414;BMP280;23279;46.472;30.760;2023-07-29T03:21:11;77364.50;;;-146.33
37414;BMP280;23279;46.472;30.760;2023-07-29T03:23:38;77366.53;;;-146.33
37414;BMP280;23279;46.472;30.760;2023-07-29T03:26:21;77360.44;;;-146.33
37414;BMP280;23279;46.472;30.760;2023-07-29T03:29:02;77368.56;;;-146.33
37414;BMP280;23279;46.472;30.760;2023-07-29T03:31:31;77368.56;;;-146.33
37414;BMP280;23279;46.472;30.760;2023-07-29T03:34:00;77360.44;;;-146.33
37414;BMP280;23279;46.472;30.760;2023-07-29T03:36:34;77356.38;;;-146.33
37414;BMP280;23279;46.472;30.760;2023-07-29T03:38:59;77352.28;;;-146.33
37414;BMP280;23279;46.472;30.760;2023-07-29T03:41:31;77350.25;;;-146.33
37414;BMP280;23279;46.472;30.760;2023-07-29T03:44:13;77348.22;;;-146.33
37414;BMP280;23279;46.472;30.760;2023-07-29T03:46:45;77348.22;;;-146.33
37414;BMP280;23279;46.472;30.760;2023-07-29T03:49:13;77331.94;;;-146.33
37414;BMP280;23279;46.472;30.760;2023-07-29T03:51:42;77323.81;;;-146.33
37414;BMP280;23279;46.472;30.760;2023-07-29T03:54:15;77311.59;;;-146.33
37414;BMP280;23279;46.472;30.760;2023-07-29T03:56:41;77301.44;;;-146.33
37414;BMP280;23279;46.472;30.760;2023-07-29T03:59:07;77291.25;;;-146.33
37414;BMP280;23279;46.472;30.760;2023-07-29T04:01:33;77297.38;;;-146.33
37414;BMP280;23279;46.472;30.760;2023-07-29T04:03:59;77283.13;;;-146.33
37414;BMP280;23279;46.472;30.760;2023-07-29T04:06:32;77291.25;;;-146.33
37414;BMP280;23279;46.472;30.760;2023-07-29T04:08:58;77279.06;;;-146.33
37414;BMP280;23279;46.472;30.760;2023-07-29T04:11:44;77270.91;;;-146.33
37414;BMP280;23279;46.472;30.760;2023-07-29T04:14:12;77262.78;;;-146.33
37414;BMP280;23279;46.472;30.760;2023-07-29T04:16:38;77266.84;;;-146.33
37414;BMP280;23279;46.472;30.760;2023-07-29T04:19:04;77256.69;;;-146.33
37414;BMP280;23279;46.472;30.760;2023-07-29T04:21:32;77236.34;;;-146.33
37414;BMP280;23279;46.472;30.760;2023-07-29T04:24:07;77222.09;;;-146.33
37414;BMP280;23279;46.472;30.760;2023-07-29T04:26:35;77211.94;;;-146.33
37414;BMP280;23279;46.472;30.760;2023-07-29T04:29:01;77197.69;;;-146.33
37414;BMP280;23279;46.472;30.760;2023-07-29T04:31:27;77201.75;;;-146.33
37414;BMP280;23279;46.472;30.760;2023-07-29T04:34:02;77191.59;;;-146.33
37414;BMP280;23279;46.472;30.760;2023-07-29T04:36:28;77185.47;;;-146.33
37414;BMP280;23279;46.472;30.760;2023-07-29T04:38:54;77181.41;;;-146.33
37414;BMP280;23279;46.472;30.760;2023-07-29T04:41:20;77189.53;;;-146.33
37414;BMP280;23279;46.472;30.760;2023-07-29T04:43:45;77171.25;;;-146.33
37414;BMP280;23279;46.472;30.760;2023-07-29T04:46:17;77142.75;;;-146.33
37414;BMP280;23279;46.472;30.760;2023-07-29T04:48:45;77146.81;;;-146.33
37414;BMP280;23279;46.472;30.760;2023-07-29T04:51:14;77124.44;;;-146.33
37414;BMP280;23279;46.472;30.760;2023-07-29T04:53:43;77134.63;;;-146.33
37414;BMP280;23279;46.472;30.760;2023-07-29T04:58:46;77104.09;;;-146.33
37414;BMP280;23279;46.472;30.760;2023-07-29T05:01:22;77095.97;;;-146.33
37414;BMP280;23279;46.472;30.760;2023-07-29T05:03:49;77095.97;;;-146.33
37414;BMP280;23279;46.472;30.760;2023-07-29T05:06:18;77053.25;;;-146.33
37414;BMP280;23279;46.472;30.760;2023-07-29T05:08:53;77030.88;;;-146.33
37414;BMP280;23279;46.472;30.760;2023-07-29T05:11:22;77045.13;;;-146.33
37414;BMP280;23279;46.472;30.760;2023-07-29T05:13:56;76994.25;;;-146.33
37414;BMP280;23279;46.472;30.760;2023-07-29T05:16:25;76998.31;;;-146.33
37414;BMP280;23279;46.472;30.760;2023-07-29T05:18:51;76990.19;;;-146.33
37414;BMP280;23279;46.472;30.760;2023-07-29T05:21:19;76961.72;;;-146.33
37414;BMP280;23279;46.472;30.760;2023-07-29T05:23:54;76945.44;;;-146.33
37414;BMP280;23279;46.472;30.760;2023-07-29T05:26:28;76931.19;;;-146.33
37414;BMP280;23279;46.472;30.760;2023-07-29T05:29:07;76890.50;;;-146.33
37414;BMP280;23279;46.472;30.760;2023-07-29T05:31:32;76925.09;;;-146.33
37414;BMP280;23279;46.472;30.760;2023-07-29T05:34:00;76886.44;;;-146.33
37414;BMP280;23279;46.472;30.760;2023-07-29T05:36:32;76855.94;;;-146.33
37414;BMP280;23279;46.472;30.760;2023-07-29T05:38:58;76851.88;;;-146.33
37414;BMP280;23279;46.472;30.760;2023-07-29T05:41:30;76837.63;;;-146.33
37414;BMP280;23279;46.472;30.760;2023-07-29T05:43:55;76811.19;;;-146.33
37414;BMP280;23279;46.472;30.760;2023-07-29T05:46:23;76762.38;;;-146.33
37414;BMP280;23279;46.472;30.760;2023-07-29T05:48:48;76721.69;;;-146.33
37414;BMP280;23279;46.472;30.760;2023-07-29T05:51:17;76717.63;;;-146.33
37414;BMP280;23279;46.472;30.760;2023-07-29T05:53:43;76674.91;;;-146.33
37414;BMP280;23279;46.472;30.760;2023-07-29T05:56:12;76648.47;;;-146.33
37414;BMP280;23279;46.472;30.760;2023-07-29T05:58:50;76636.25;;;-146.33
37414;BMP280;23279;46.472;30.760;2023-07-29T06:01:15;76636.25;;;-146.33
37414;BMP280;23279;46.472;30.760;2023-07-29T06:03:46;76632.19;;;-146.33
37414;BMP280;23279;46.472;30.760;2023-07-29T06:06:17;76615.94;;;-146.33
37414;BMP280;23279;46.472;30.760;2023-07-29T06:08:44;76656.59;;;-146.33
37414;BMP280;23279;46.472;30.760;2023-07-29T06:11:10;76676.94;;;-146.33
37414;BMP280;23279;46.472;30.760;2023-07-29T06:13:35;76748.13;;;-146.33
37414;BMP280;23279;46.472;30.760;2023-07-29T06:16:09;76697.28;;;-146.33
37414;BMP280;23279;46.472;30.760;2023-07-29T06:18:38;76656.59;;;-146.33
37414;BMP280;23279;46.472;30.760;2023-07-29T06:21:03;76658.63;;;-146.33
37414;BMP280;23279;46.472;30.760;2023-07-29T06:24:14;76672.88;;;-146.33
37414;BMP280;23279;46.472;30.760;2023-07-29T06:26:30;76691.19;;;-146.33
37414;BMP280;23279;46.472;30.760;2023-07-29T06:28:56;76744.06;;;-146.33
37414;BMP280;23279;46.472;30.760;2023-07-29T06:31:32;76705.41;;;-146.33
37414;BMP280;23279;46.472;30.760;2023-07-29T06:34:01;76662.72;;;-146.33
37414;BMP280;23279;46.472;30.760;2023-07-29T06:36:28;76683.03;;;-146.33
37414;BMP280;23279;46.472;30.760;2023-07-29T06:39:10;76689.16;;;-146.33
37414;BMP280;23279;46.472;30.760;2023-07-29T06:41:38;76636.25;;;-146.33
37414;BMP280;23279;46.472;30.760;2023-07-29T06:44:04;76628.13;;;-146.33
37414;BMP280;23279;46.472;30.760;2023-07-29T06:46:30;76599.66;;;-146.33
37414;BMP280;23279;46.472;30.760;2023-07-29T06:48:55;76611.84;;;-146.33
37414;BMP280;23279;46.472;30.760;2023-07-29T06:51:35;76622.03;;;-146.33
37414;BMP280;23279;46.472;30.760;2023-07-29T06:54:02;76607.78;;;-146.33
37414;BMP280;23279;46.472;30.760;2023-07-29T06:56:28;76640.34;;;-146.33
37414;BMP280;23279;46.472;30.760;2023-07-29T06:58:53;76691.19;;;-146.33
37414;BMP280;23279;46.472;30.760;2023-07-29T07:01:19;76683.03;;;-146.33
37414;BMP280;23279;46.472;30.760;2023-07-29T07:03:44;76685.06;;;-146.33
37414;BMP280;23279;46.472;30.760;2023-07-29T07:06:09;76670.84;;;-146.33
37414;BMP280;23279;46.472;30.760;2023-07-29T07:08:35;76648.47;;;-146.33
37414;BMP280;23279;46.472;30.760;2023-07-29T07:11:00;76648.47;;;-146.33
37414;BMP280;23279;46.472;30.760;2023-07-29T07:13:26;76644.41;;;-146.33
37414;BMP280;23279;46.472;30.760;2023-07-29T07:15:54;76668.81;;;-146.33
37414;BMP280;23279;46.472;30.760;2023-07-29T07:18:20;76624.06;;;-146.33
37414;BMP280;23279;46.472;30.760;2023-07-29T07:20:49;76626.09;;;-146.33
37414;BMP280;23279;46.472;30.760;2023-07-29T07:23:14;76662.72;;;-146.33
37414;BMP280;23279;46.472;30.760;2023-07-29T07:25:40;76676.94;;;-146.33
37414;BMP280;23279;46.472;30.760;2023-07-29T07:28:07;76652.53;;;-146.33
37414;BMP280;23279;46.472;30.760;2023-07-29T07:30:32;76626.09;;;-146.33
37414;BMP280;23279;46.472;30.760;2023-07-29T07:32:58;76644.41;;;-146.33
37414;BMP280;23279;46.472;30.760;2023-07-29T07:35:23;76646.44;;;-146.33
37414;BMP280;23279;46.472;30.760;2023-07-29T07:37:48;76642.38;;;-146.33
37414;BMP280;23279;46.472;30.760;2023-07-29T07:40:14;76632.19;;;-146.33
37414;BMP280;23279;46.472;30.760;2023-07-29T07:42:39;76660.66;;;-146.33
37414;BMP280;23279;46.472;30.760;2023-07-29T07:45:05;76642.38;;;-146.33
37414;BMP280;23279;46.472;30.760;2023-07-29T07:47:30;76644.41;;;-146.33
37414;BMP280;23279;46.472;30.760;2023-07-29T07:49:56;76646.44;;;-146.33
37414;BMP280;23279;46.472;30.760;2023-07-29T07:52:21;76630.16;;;-146.33
37414;BMP280;23279;46.472;30.760;2023-07-29T07:54:52;76603.72;;;-146.33
37414;BMP280;23279;46.472;30.760;2023-07-29T07:57:19;76599.66;;;-146.33
37414;BMP280;23279;46.472;30.760;2023-07-29T07:59:45;76620.00;;;-146.33
37414;BMP280;23279;46.472;30.760;2023-07-29T08:02:10;76662.72;;;-146.33
37414;BMP280;23279;46.472;30.760;2023-07-29T08:04:36;76640.34;;;-146.33
37414;BMP280;23279;46.472;30.760;2023-07-29T08:07:01;76644.41;;;-146.33
37414;BMP280;23279;46.472;30.760;2023-07-29T08:09:26;76662.72;;;-146.33
37414;BMP280;23279;46.472;30.760;2023-07-29T08:11:52;76658.63;;;-146.33
37414;BMP280;23279;46.472;30.760;2023-07-29T08:14:17;76634.22;;;-146.33
37414;BMP280;23279;46.472;30.760;2023-07-29T08:16:43;76613.88;;;-146.33
37414;BMP280;23279;46.472;30.760;2023-07-29T08:19:08;76660.66;;;-146.33
37414;BMP280;23279;46.472;30.760;2023-07-29T08:21:35;76634.22;;;-146.33
37414;BMP280;23279;46.472;30.760;2023-07-29T08:24:03;76664.75;;;-146.33
37414;BMP280;23279;46.472;30.760;2023-07-29T08:26:29;76615.94;;;-146.33
37414;BMP280;23279;46.472;30.760;2023-07-29T08:28:54;76705.41;;;-146.33
37414;BMP280;23279;46.472;30.760;2023-07-29T08:31:19;76650.50;;;-146.33
37414;BMP280;23279;46.472;30.760;2023-07-29T08:33:45;76611.84;;;-146.33
37414;BMP280;23279;46.472;30.760;2023-07-29T08:36:10;76587.44;;;-146.33
37414;BMP280;23279;46.472;30.760;2023-07-29T08:38:35;76585.41;;;-146.33
37414;BMP280;23279;46.472;30.760;2023-07-29T08:41:13;76585.41;;;-146.33
37414;BMP280;23279;46.472;30.760;2023-07-29T08:43:46;76581.34;;;-146.33
37414;BMP280;23279;46.472;30.760;2023-07-29T08:46:14;76620.00;;;-146.33
37414;BMP280;23279;46.472;30.760;2023-07-29T08:48:42;76601.69;;;-146.33
37414;BMP280;23279;46.472;30.760;2023-07-29T08:51:09;76615.94;;;-146.33
37414;BMP280;23279;46.472;30.760;2023-07-29T08:53:35;76599.66;;;-146.33
37414;BMP280;23279;46.472;30.760;2023-07-29T08:56:01;76558.97;;;-146.33
37414;BMP280;23279;46.472;30.760;2023-07-29T08:58:27;76583.38;;;-146.33
37414;BMP280;23279;46.472;30.760;2023-07-29T09:00:53;76563.03;;;-146.33
37414;BMP280;23279;46.472;30.760;2023-07-29T09:03:20;76593.56;;;-146.33
37414;BMP280;23279;46.472;30.760;2023-07-29T09:05:45;76587.44;;;-146.33
37414;BMP280;23279;46.472;30.760;2023-07-29T09:08:11;76597.63;;;-146.33
37414;BMP280;23279;46.472;30.760;2023-07-29T09:10:37;76563.03;;;-146.33
37414;BMP280;23279;46.472;30.760;2023-07-29T09:13:03;76550.84;;;-146.33
37414;BMP280;23279;46.472;30.760;2023-07-29T09:15:30;76607.78;;;-146.33
37414;BMP280;23279;46.472;30.760;2023-07-29T09:17:56;76613.88;;;-146.33
37414;BMP280;23279;46.472;30.760;2023-07-29T09:20:26;76575.25;;;-146.33
37414;BMP280;23279;46.472;30.760;2023-07-29T09:22:58;76552.88;;;-146.33
37414;BMP280;23279;46.472;30.760;2023-07-29T09:25:30;76561.00;;;-146.33
37414;BMP280;23279;46.472;30.760;2023-07-29T09:27:59;76502.03;;;-146.33
37414;BMP280;23279;46.472;30.760;2023-07-29T09:30:25;76593.56;;;-146.33
37414;BMP280;23279;46.472;30.760;2023-07-29T09:32:58;76648.47;;;-146.33
37414;BMP280;23279;46.472;30.760;2023-07-29T09:35:24;76595.59;;;-146.33
37414;BMP280;23279;46.472;30.760;2023-07-29T09:37:51;76607.78;;;-146.33
37414;BMP280;23279;46.472;30.760;2023-07-29T09:40:17;76646.44;;;-146.33
37414;BMP280;23279;46.472;30.760;2023-07-29T09:42:50;76676.94;;;-146.33
37414;BMP280;23279;46.472;30.760;2023-07-29T09:45:23;76654.56;;;-146.33
37414;BMP280;23279;46.472;30.760;2023-07-29T09:47:51;76705.41;;;-146.33
37414;BMP280;23279;46.472;30.760;2023-07-29T09:50:17;76624.06;;;-146.33
37414;BMP280;23279;46.472;30.760;2023-07-29T09:52:43;76620.00;;;-146.33
37414;BMP280;23279;46.472;30.760;2023-07-29T09:55:13;76632.19;;;-146.33
37414;BMP280;23279;46.472;30.760;2023-07-29T09:57:41;76642.38;;;-146.33
37414;BMP280;23279;46.472;30.760;2023-07-29T10:00:07;76676.94;;;-146.33
37414;BMP280;23279;46.472;30.760;2023-07-29T10:02:38;76648.47;;;-146.33
37414;BMP280;23279;46.472;30.760;2023-07-29T10:05:05;76681.00;;;-146.33
37414;BMP280;23279;46.472;30.760;2023-07-29T10:07:31;76644.41;;;-146.33
37414;BMP280;23279;46.472;30.760;2023-07-29T10:09:58;76603.72;;;-146.33
37414;BMP280;23279;46.472;30.760;2023-07-29T10:12:24;76601.69;;;-146.33
37414;BMP280;23279;46.472;30.760;2023-07-29T10:14:50;76575.25;;;-146.33
37414;BMP280;23279;46.472;30.760;2023-07-29T10:17:15;76607.78;;;-146.33
37414;BMP280;23279;46.472;30.760;2023-07-29T10:19:42;76636.25;;;-146.33
37414;BMP280;23279;46.472;30.760;2023-07-29T10:22:10;76599.66;;;-146.33
37414;BMP280;23279;46.472;30.760;2023-07-29T10:24:37;76583.38;;;-146.33
37414;BMP280;23279;46.472;30.760;2023-07-29T10:27:06;76715.59;;;-146.33
37414;BMP280;23279;46.472;30.760;2023-07-29T10:29:38;76754.22;;;-146.33
37414;BMP280;23279;46.472;30.760;2023-07-29T10:32:04;76774.56;;;-146.33
37414;BMP280;23279;46.472;30.760;2023-07-29T10:34:31;76758.31;;;-146.33
37414;BMP280;23279;46.472;30.760;2023-07-29T10:36:58;76727.78;;;-146.33
37414;BMP280;23279;46.472;30.760;2023-07-29T10:39:24;76662.72;;;-146.33
37414;BMP280;23279;46.472;30.760;2023-07-29T10:42:01;76656.59;;;-146.33
37414;BMP280;23279;46.472;30.760;2023-07-29T10:47:23;76630.16;;;-146.33
37414;BMP280;23279;46.472;30.760;2023-07-29T10:49:54;76644.41;;;-146.33
37414;BMP280;23279;46.472;30.760;2023-07-29T10:52:31;76735.94;;;-146.33
37414;BMP280;23279;46.472;30.760;2023-07-29T10:54:57;76725.75;;;-146.33
37414;BMP280;23279;46.472;30.760;2023-07-29T10:57:34;76676.94;;;-146.33
37414;BMP280;23279;46.472;30.760;2023-07-29T11:00:00;76632.19;;;-146.33
37414;BMP280;23279;46.472;30.760;2023-07-29T11:02:36;76589.47;;;-146.33
37414;BMP280;23279;46.472;30.760;2023-07-29T11:05:07;76526.44;;;-146.33
37414;BMP280;23279;46.472;30.760;2023-07-29T11:08:02;76487.78;;;-146.33
37414;BMP280;23279;46.472;30.760;2023-07-29T11:10:43;76508.13;;;-146.33
37414;BMP280;23279;46.472;30.760;2023-07-29T11:13:12;76485.75;;;-146.33
37414;BMP280;23279;46.472;30.760;2023-07-29T11:15:38;76436.94;;;-146.33
37414;BMP280;23279;46.472;30.760;2023-07-29T11:18:05;76412.53;;;-146.33
37414;BMP280;23279;46.472;30.760;2023-07-29T11:20:33;76375.94;;;-146.33
37414;BMP280;23279;46.472;30.760;2023-07-29T11:23:03;76434.91;;;-146.33
37414;BMP280;23279;46.472;30.760;2023-07-29T11:25:29;76428.81;;;-146.33
37414;BMP280;23279;46.472;30.760;2023-07-29T11:27:57;76426.78;;;-146.33
37414;BMP280;23279;46.472;30.760;2023-07-29T11:30:23;76361.69;;;-146.33
37414;BMP280;23279;46.472;30.760;2023-07-29T11:32:53;76351.53;;;-146.33
37414;BMP280;23279;46.472;30.760;2023-07-29T11:35:19;76396.28;;;-146.33
37414;BMP280;23279;46.472;30.760;2023-07-29T11:37:47;76445.09;;;-146.33
37414;BMP280;23279;46.472;30.760;2023-07-29T11:42:41;76441.00;;;-146.33
37414;BMP280;23279;46.472;30.760;2023-07-29T11:45:07;76441.00;;;-146.33
37414;BMP280;23279;46.472;30.760;2023-07-29T11:47:33;76400.34;;;-146.33
37414;BMP280;23279;46.472;30.760;2023-07-29T11:50:09;76355.59;;;-146.33
37414;BMP280;23279;46.472;30.760;2023-07-29T11:52:36;76339.31;;;-146.33
37414;BMP280;23279;46.472;30.760;2023-07-29T11:55:02;76343.41;;;-146.33
37414;BMP280;23279;46.472;30.760;2023-07-29T11:57:33;76426.78;;;-146.33
37414;BMP280;23279;46.472;30.760;2023-07-29T12:00:02;76485.75;;;-146.33
37414;BMP280;23279;46.472;30.760;2023-07-29T12:02:27;76443.03;;;-146.33
37414;BMP280;23279;46.472;30.760;2023-07-29T12:04:53;76447.13;;;-146.33
37414;BMP280;23279;46.472;30.760;2023-07-29T12:07:19;76526.44;;;-146.33
37414;BMP280;23279;46.472;30.760;2023-07-29T12:09:46;76526.44;;;-146.33
37414;BMP280;23279;46.472;30.760;2023-07-29T12:12:12;76420.69;;;-146.33
37414;BMP280;23279;46.472;30.760;2023-07-29T12:14:37;76445.09;;;-146.33
37414;BMP280;23279;46.472;30.760;2023-07-29T12:17:05;76495.94;;;-146.33
37414;BMP280;23279;46.472;30.760;2023-07-29T12:19:37;76414.56;;;-146.33
37414;BMP280;23279;46.472;30.760;2023-07-29T12:22:05;76412.53;;;-146.33
37414;BMP280;23279;46.472;30.760;2023-07-29T12:24:32;76436.94;;;-146.33
37414;BMP280;23279;46.472;30.760;2023-07-29T12:26:58;76461.34;;;-146.33
37414;BMP280;23279;46.472;30.760;2023-07-29T12:29:23;76502.03;;;-146.33
37414;BMP280;23279;46.472;30.760;2023-07-29T12:31:57;76485.75;;;-146.33
37414;BMP280;23279;46.472;30.760;2023-07-29T12:34:25;76461.34;;;-146.33
37414;BMP280;23279;46.472;30.760;2023-07-29T12:36:51;76449.16;;;-146.33
37414;BMP280;23279;46.472;30.760;2023-07-29T12:39:27;76457.28;;;-146.33
37414;BMP280;23279;46.472;30.760;2023-07-29T12:41:54;76489.81;;;-146.33
37414;BMP280;23279;46.472;30.760;2023-07-29T12:44:20;76473.56;;;-146.33
37414;BMP280;23279;46.472;30.760;2023-07-29T12:46:46;76469.50;;;-146.33
37414;BMP280;23279;46.472;30.760;2023-07-29T12:49:11;76463.38;;;-146.33
37414;BMP280;23279;46.472;30.760;2023-07-29T12:51:37;76489.81;;;-146.33
37414;BMP280;23279;46.472;30.760;2023-07-29T12:54:04;76477.63;;;-146.33
37414;BMP280;23279;46.472;30.760;2023-07-29T12:56:30;76508.13;;;-146.33
37414;BMP280;23279;46.472;30.760;2023-07-29T12:58:59;76506.09;;;-146.33
37414;BMP280;23279;46.472;30.760;2023-07-29T13:01:25;76532.53;;;-146.33
37414;BMP280;23279;46.472;30.760;2023-07-29T13:03:50;76540.66;;;-146.33
37414;BMP280;23279;46.472;30.760;2023-07-29T13:06:16;76546.78;;;-146.33
37414;BMP280;23279;46.472;30.760;2023-07-29T13:08:42;76542.72;;;-146.33
37414;BMP280;23279;46.472;30.760;2023-07-29T13:11:08;76510.16;;;-146.33
37414;BMP280;23279;46.472;30.760;2023-07-29T13:13:34;76524.41;;;-146.33
37414;BMP280;23279;46.472;30.760;2023-07-29T13:15:59;76512.19;;;-146.33
37414;BMP280;23279;46.472;30.760;2023-07-29T13:18:25;76471.53;;;-146.33
37414;BMP280;23279;46.472;30.760;2023-07-29T13:20:50;76469.50;;;-146.33
37414;BMP280;23279;46.472;30.760;2023-07-29T13:23:16;76436.94;;;-146.33
37414;BMP280;23279;46.472;30.760;2023-07-29T13:25:41;76438.97;;;-146.33
37414;BMP280;23279;46.472;30.760;2023-07-29T13:28:09;76436.94;;;-146.33
37414;BMP280;23279;46.472;30.760;2023-07-29T13:30:34;76441.00;;;-146.33
37414;BMP280;23279;46.472;30.760;2023-07-29T13:33:00;76463.38;;;-146.33
37414;BMP280;23279;46.472;30.760;2023-07-29T13:37:53;76457.28;;;-146.33
37414;BMP280;23279;46.472;30.760;2023-07-29T13:40:18;76483.72;;;-146.33
37414;BMP280;23279;46.472;30.760;2023-07-29T13:42:43;76532.53;;;-146.33
37414;BMP280;23279;46.472;30.760;2023-07-29T13:45:09;76546.78;;;-146.33
37414;BMP280;23279;46.472;30.760;2023-07-29T13:47:34;76497.97;;;-146.33
37414;BMP280;23279;46.472;30.760;2023-07-29T13:50:00;76481.69;;;-146.33
37414;BMP280;23279;46.472;30.760;2023-07-29T13:52:26;76469.50;;;-146.33